Time;durP1;ratioP1;P1;durP2;ratioP2;P2;SDS_P1;SDS_P2;PMS_P1;PMS_P2;Temp;Humidity;BMP_temperature;BMP_pressure;BME280_temperature;BME280_humidity;BME280_pressure;Samples;Min_cycle;Max_cycle;Signal;HPM_P1;HPM_P2
2023/06/24 00:01:32;;;;;;;11.93;10.77;;;;;;;23.31;74.14;95025.28;5046646;28;20215;-61
2023/06/24 00:04:00;;;;;;;12.00;10.98;;;;;;;23.31;74.54;95032.22;5048419;28;20270;-62
2023/06/24 00:06:26;;;;;;;12.68;11.60;;;;;;;23.23;75.58;95034.66;5047390;28;20786;-62
2023/06/24 00:09:00;;;;;;;11.30;10.20;;;;;;;23.24;75.16;95025.94;5047264;28;20681;-62
2023/06/24 00:11:27;;;;;;;11.85;10.80;;;;;;;23.14;74.05;95025.88;5047362;28;20202;-61
2023/06/24 00:13:54;;;;;;;10.98;10.07;;;;;;;23.26;73.76;95013.66;5047548;28;20226;-61
2023/06/24 00:16:26;;;;;;;11.20;10.20;;;;;;;23.33;73.24;95023.38;5046139;28;20234;-61
2023/06/24 00:18:58;;;;;;;14.52;10.80;;;;;;;23.22;73.32;95023.47;5046130;28;21629;-62
2023/06/24 00:21:29;;;;;;;12.40;10.07;;;;;;;23.15;73.37;95026.69;5046097;28;20195;-61
2023/06/24 00:23:56;;;;;;;11.02;10.05;;;;;;;23.16;74.01;95023.16;5046761;28;20210;-62
2023/06/24 00:26:23;;;;;;;10.65;9.63;;;;;;;23.15;74.01;95019.75;5045954;28;20933;-62
2023/06/24 00:28:49;;;;;;;10.35;9.55;;;;;;;23.14;73.61;95019.88;5045583;28;20231;-62
2023/06/24 00:31:16;;;;;;;11.55;10.55;;;;;;;22.97;74.20;95016.91;5046766;28;20234;-61
2023/06/24 00:33:43;;;;;;;11.07;10.13;;;;;;;22.96;74.39;95020.47;5047836;28;20218;-61
2023/06/24 00:36:11;;;;;;;10.05;9.23;;;;;;;22.92;74.14;95021.66;5047391;28;20237;-62
2023/06/24 00:38:38;;;;;;;10.13;9.25;;;;;;;22.89;74.31;95032.28;5047500;28;20261;-61
2023/06/24 00:41:05;;;;;;;10.93;10.02;;;;;;;22.88;74.60;95019.44;5046669;28;20264;-61
2023/06/24 00:43:32;;;;;;;10.70;9.65;;;;;;;22.96;74.07;95017.88;5046077;28;20697;-62
2023/06/24 00:45:59;;;;;;;10.65;9.70;;;;;;;23.00;73.73;95019.25;5048088;28;20207;-62
2023/06/24 00:48:26;;;;;;;10.30;9.60;;;;;;;23.04;73.68;95018.03;5047254;28;20199;-62
2023/06/24 00:50:52;;;;;;;12.55;10.63;;;;;;;22.89;74.16;95014.13;5047709;28;20300;-61
2023/06/24 00:53:24;;;;;;;14.60;11.93;;;;;;;22.71;76.94;95013.03;5046996;28;20226;-61
2023/06/24 00:55:52;;;;;;;14.55;13.23;;;;;;;22.67;77.86;95001.28;5047790;28;20205;-62
2023/06/24 00:58:20;;;;;;;14.07;12.77;;;;;;;22.49;79.19;95013.16;5045941;28;20199;-62
2023/06/24 01:00:56;;;;;;;13.93;12.75;;;;;;;22.35;80.20;95009.91;5047393;28;20290;-62
2023/06/24 01:03:23;;;;;;;12.80;11.70;;;;;;;22.31;80.22;95005.91;5047051;28;20214;-64
2023/06/24 01:05:50;;;;;;;12.70;11.30;;;;;;;22.31;80.05;95003.31;5047695;28;20207;-61
2023/06/24 01:08:19;;;;;;;13.55;12.43;;;;;;;22.29;80.45;95007.78;5046871;28;20257;-61
2023/06/24 01:10:47;;;;;;;14.00;12.68;;;;;;;22.29;81.00;95001.78;5047141;28;20765;-62
2023/06/24 01:13:13;;;;;;;16.85;13.43;;;;;;;22.23;81.76;94997.94;5046558;28;20726;-63
2023/06/24 01:15:40;;;;;;;14.90;13.32;;;;;;;22.24;82.08;95004.78;5047185;28;20211;-61
2023/06/24 01:18:12;;;;;;;14.93;13.50;;;;;;;22.23;82.60;95000.53;5046245;28;20229;-62
2023/06/24 01:20:46;;;;;;;14.35;13.18;;;;;;;22.11;83.11;94993.75;5046274;28;20252;-63
2023/06/24 01:23:48;;;;;;;14.70;13.20;;;;;;;22.06;83.24;94996.69;5046687;28;20207;-63
2023/06/24 01:26:41;;;;;;;16.13;14.73;;;;;;;22.00;83.56;95001.53;5046391;28;20744;-62
2023/06/24 01:29:46;;;;;;;20.17;13.93;;;;;;;21.88;84.10;95003.31;5046230;28;20606;-62
2023/06/24 01:32:21;;;;;;;15.20;13.50;;;;;;;21.78;84.63;95011.94;5037414;28;20210;-62
2023/06/24 01:34:57;;;;;;;14.88;13.52;;;;;;;21.80;84.67;95010.00;5046824;28;20206;-61
2023/06/24 01:37:28;;;;;;;15.10;13.57;;;;;;;21.78;84.74;95011.94;5046143;28;20268;-62
2023/06/24 01:40:06;;;;;;;16.23;13.43;;;;;;;21.68;84.97;95022.97;5046889;28;20199;-62
2023/06/24 01:42:36;;;;;;;13.65;12.45;;;;;;;21.54;85.81;95025.78;5047106;28;20208;-62
2023/06/24 01:45:03;;;;;;;14.38;12.98;;;;;;;21.55;86.12;95030.03;5047310;28;20292;-61
2023/06/24 01:47:32;;;;;;;14.82;13.63;;;;;;;21.65;85.87;95038.72;5046407;28;20978;-63
2023/06/24 01:50:02;;;;;;;14.95;13.52;;;;;;;21.58;86.08;95037.56;5046640;28;20230;-62
2023/06/24 01:52:31;;;;;;;15.70;14.07;;;;;;;21.56;86.34;95034.25;5046274;28;20695;-62
2023/06/24 01:54:59;;;;;;;19.92;13.60;;;;;;;21.56;86.42;95034.25;5046067;28;20215;-61
2023/06/24 01:57:28;;;;;;;15.15;13.70;;;;;;;21.73;85.60;95045.91;5046431;28;20664;-62
2023/06/24 01:59:57;;;;;;;20.05;13.90;;;;;;;21.59;86.02;95039.19;5046507;28;20293;-62
2023/06/24 02:02:25;;;;;;;17.27;13.90;;;;;;;21.54;86.38;95040.50;5045753;28;20221;-63
2023/06/24 02:04:55;;;;;;;14.80;13.38;;;;;;;21.53;86.55;95044.84;5045353;28;20302;-62
2023/06/24 02:07:24;;;;;;;14.95;13.23;;;;;;;21.49;86.51;95051.22;5046434;28;20344;-62
2023/06/24 02:09:52;;;;;;;16.85;14.02;;;;;;;21.50;86.26;95050.28;5045792;28;20272;-62
2023/06/24 02:12:20;;;;;;;15.15;13.55;;;;;;;21.53;86.30;95047.41;5046885;28;20716;-62
2023/06/24 02:14:49;;;;;;;15.07;13.57;;;;;;;21.49;86.68;95047.81;5046427;28;20256;-62
2023/06/24 02:17:17;;;;;;;16.05;14.18;;;;;;;21.51;86.81;95051.91;5046263;28;20302;-62
2023/06/24 02:19:45;;;;;;;15.82;14.05;;;;;;;21.52;86.49;95056.16;5045764;28;20352;-62
2023/06/24 02:22:13;;;;;;;20.30;14.60;;;;;;;21.44;86.74;95055.09;5046096;28;20233;-62
2023/06/24 02:24:42;;;;;;;14.68;13.38;;;;;;;21.54;86.41;95063.75;5045531;28;20884;-62
2023/06/24 02:27:09;;;;;;;15.60;14.05;;;;;;;21.51;86.54;95059.69;5045376;28;20233;-62
2023/06/24 02:29:38;;;;;;;15.82;14.20;;;;;;;21.55;86.22;95063.66;5046072;28;20207;-62
2023/06/24 02:32:05;;;;;;;14.32;12.95;;;;;;;21.68;85.91;95079.06;5046147;28;20195;-63
2023/06/24 02:34:33;;;;;;;18.15;14.07;;;;;;;21.66;86.05;95086.94;5046234;28;20245;-61
2023/06/24 02:37:00;;;;;;;16.50;14.90;;;;;;;21.61;86.06;95076.13;5046018;28;20288;-62
2023/06/24 02:39:28;;;;;;;19.05;15.48;;;;;;;21.61;86.37;95088.22;5045280;28;20261;-62
2023/06/24 02:41:55;;;;;;;15.18;13.90;;;;;;;21.80;85.49;95093.63;5046369;28;20702;-62
2023/06/24 02:44:21;;;;;;;16.15;14.80;;;;;;;21.76;85.61;95092.25;5045983;28;20195;-62
2023/06/24 02:46:50;;;;;;;15.07;13.77;;;;;;;21.76;85.73;95083.66;5046224;28;20231;-62
2023/06/24 02:49:19;;;;;;;16.92;14.00;;;;;;;21.75;85.85;95079.41;5045570;28;20253;-62
2023/06/24 02:51:46;;;;;;;16.42;14.68;;;;;;;21.64;86.24;95085.41;5045863;28;20223;-62
2023/06/24 02:54:13;;;;;;;16.23;14.43;;;;;;;21.60;86.24;95087.41;5045961;28;20286;-62
2023/06/24 02:56:43;;;;;;;15.77;14.13;;;;;;;21.67;86.31;95106.69;5046419;28;20195;-61
2023/06/24 02:59:10;;;;;;;16.65;14.85;;;;;;;21.59;86.47;95105.63;5045703;28;20206;-63
2023/06/24 03:01:40;;;;;;;19.05;15.77;;;;;;;21.52;87.09;95100.13;5045854;28;20202;-60
2023/06/24 03:04:07;;;;;;;16.10;14.70;;;;;;;21.63;86.73;95097.50;5046949;28;20253;-62
2023/06/24 03:06:36;;;;;;;17.10;15.30;;;;;;;21.65;86.61;95099.97;5045783;28;20203;-62
2023/06/24 03:09:03;;;;;;;16.27;14.63;;;;;;;21.61;86.57;95093.41;5046358;28;20483;-62
2023/06/24 03:11:30;;;;;;;19.23;14.20;;;;;;;21.65;86.38;95090.47;5046696;28;20218;-62
2023/06/24 03:13:58;;;;;;;16.70;15.05;;;;;;;21.70;86.27;95090.94;5044584;28;20250;-62
2023/06/24 03:16:25;;;;;;;15.35;13.82;;;;;;;21.86;85.87;95100.09;5047019;28;20199;-61
2023/06/24 03:18:52;;;;;;;17.00;14.18;;;;;;;21.81;85.90;95100.44;5049871;28;20739;-63
2023/06/24 03:21:18;;;;;;;22.80;16.15;;;;;;;21.90;85.41;95101.50;5049311;28;20203;-62
2023/06/24 03:23:45;;;;;;;19.25;16.05;;;;;;;21.93;85.34;95098.69;5049395;28;20207;-62
2023/06/24 03:26:12;;;;;;;16.55;14.82;;;;;;;22.06;84.76;95104.56;5049304;28;20242;-62
2023/06/24 03:28:39;;;;;;;22.63;15.57;;;;;;;22.12;84.47;95105.84;5049611;28;20202;-62
2023/06/24 03:31:07;;;;;;;18.40;15.10;;;;;;;22.13;84.46;95120.44;5049445;28;20199;-62
2023/06/24 03:33:33;;;;;;;18.70;14.63;;;;;;;22.51;82.93;95122.63;5050074;28;20223;-62
2023/06/24 03:36:00;;;;;;;16.75;14.93;;;;;;;23.25;80.55;95126.13;5048792;28;20210;-63
2023/06/24 03:38:27;;;;;;;18.70;14.50;;;;;;;24.44;75.91;95127.22;5049963;28;20223;-63
2023/06/24 03:40:54;;;;;;;19.38;13.75;;;;;;;25.50;69.90;95129.81;5049478;28;20199;-61
2023/06/24 03:43:21;;;;;;;16.00;13.80;;;;;;;26.40;66.23;95127.47;5049809;28;20230;-63
2023/06/24 03:45:47;;;;;;;16.05;13.10;;;;;;;27.21;63.40;95131.88;5048875;28;20285;-62
2023/06/24 03:48:15;;;;;;;13.43;12.13;;;;;;;27.91;60.78;95125.66;5049539;28;20200;-63
2023/06/24 03:50:42;;;;;;;14.05;12.77;;;;;;;28.40;58.17;95137.19;5047228;28;20226;-62
2023/06/24 03:53:09;;;;;;;16.00;14.00;;;;;;;28.70;57.50;95140.22;5048561;28;20284;-62
2023/06/24 03:55:35;;;;;;;15.07;13.40;;;;;;;28.39;57.92;95134.72;5048358;28;20211;-63
2023/06/24 03:58:02;;;;;;;15.15;12.43;;;;;;;27.86;59.52;95132.31;5048955;28;20720;-63
2023/06/24 04:00:29;;;;;;;14.93;13.40;;;;;;;27.24;61.62;95137.59;5048260;28;20292;-63
2023/06/24 04:02:55;;;;;;;16.98;13.63;;;;;;;26.78;63.13;95136.00;5048521;28;20202;-62
2023/06/24 04:05:25;;;;;;;14.10;12.95;;;;;;;26.63;64.32;95135.72;5048863;28;20223;-62
2023/06/24 04:07:53;;;;;;;15.55;13.52;;;;;;;26.56;64.59;95147.69;5049498;28;20783;-63
2023/06/24 04:10:20;;;;;;;14.75;13.02;;;;;;;26.58;63.83;95143.13;5048465;28;20210;-63
2023/06/24 04:12:47;;;;;;;15.27;13.38;;;;;;;26.50;64.14;95137.84;5047998;28;20673;-64
2023/06/24 04:15:13;;;;;;;14.63;13.20;;;;;;;26.45;64.32;95123.63;5048643;28;20231;-63
2023/06/24 04:17:40;;;;;;;16.45;12.77;;;;;;;26.42;65.12;95124.72;5048213;28;20543;-64
2023/06/24 04:20:09;;;;;;;19.88;12.13;;;;;;;26.52;64.91;95122.03;5048350;28;20210;-63
2023/06/24 04:22:38;;;;;;;15.07;13.73;;;;;;;26.63;64.40;95127.06;5048186;28;20670;-64
2023/06/24 04:25:06;;;;;;;18.38;14.13;;;;;;;26.85;63.51;95113.59;5048525;28;20202;-63
2023/06/24 04:27:33;;;;;;;16.42;13.45;;;;;;;26.87;62.85;95116.88;5047724;28;20223;-62
2023/06/24 04:30:00;;;;;;;14.35;12.95;;;;;;;26.89;63.19;95109.72;5048134;28;20207;-62
2023/06/24 04:32:27;;;;;;;16.83;13.98;;;;;;;27.07;62.62;95113.16;5047949;28;20654;-63
2023/06/24 04:34:54;;;;;;;16.75;15.15;;;;;;;27.03;61.81;95114.44;5048857;28;20264;-62
2023/06/24 04:37:20;;;;;;;13.10;11.90;;;;;;;27.25;62.05;95122.75;5048045;28;20613;-62
2023/06/24 04:39:48;;;;;;;15.30;13.85;;;;;;;27.87;60.44;95126.94;5048274;28;20231;-63
2023/06/24 04:42:15;;;;;;;14.07;12.85;;;;;;;28.57;57.98;95129.38;5047957;28;20410;-63
2023/06/24 04:44:42;;;;;;;17.63;14.10;;;;;;;29.32;55.00;95124.91;5048649;28;20285;-62
2023/06/24 04:47:09;;;;;;;14.27;12.98;;;;;;;29.54;55.32;95121.66;5048393;28;20227;-62
2023/06/24 04:49:35;;;;;;;15.93;14.32;;;;;;;30.12;53.45;95133.66;5048127;28;20264;-63
2023/06/24 04:52:02;;;;;;;15.02;13.55;;;;;;;30.64;50.99;95135.75;5047274;28;20284;-63
2023/06/24 04:54:29;;;;;;;14.65;13.27;;;;;;;31.00;50.16;95128.13;5048167;28;20199;-63
2023/06/24 04:56:57;;;;;;;17.70;13.35;;;;;;;31.27;49.76;95132.06;5048131;28;20230;-64
2023/06/24 04:59:24;;;;;;;16.13;13.57;;;;;;;31.34;49.31;95127.75;5047899;28;20304;-63
2023/06/24 05:01:51;;;;;;;14.60;13.35;;;;;;;31.53;49.08;95127.25;5047338;28;20684;-63
2023/06/24 05:04:17;;;;;;;14.95;13.15;;;;;;;31.86;48.33;95130.41;5048094;28;20205;-63
2023/06/24 05:06:44;;;;;;;15.18;13.65;;;;;;;32.17;47.67;95125.00;5046980;28;20214;-63
2023/06/24 05:09:13;;;;;;;14.77;13.45;;;;;;;32.49;47.03;95122.97;5047952;28;20610;-63
2023/06/24 05:11:40;;;;;;;15.75;13.50;;;;;;;33.01;46.02;95125.38;5046852;28;20214;-63
2023/06/24 05:14:08;;;;;;;15.45;14.05;;;;;;;33.02;45.36;95135.72;5047768;28;20195;-63
2023/06/24 05:16:34;;;;;;;16.10;14.13;;;;;;;32.75;45.96;95118.84;5047431;28;20656;-63
2023/06/24 05:19:01;;;;;;;14.68;13.23;;;;;;;32.64;46.01;95121.94;5048537;28;20231;-62
2023/06/24 05:21:28;;;;;;;15.93;14.40;;;;;;;32.20;46.83;95116.72;5046239;28;20227;-62
2023/06/24 05:23:55;;;;;;;14.82;13.52;;;;;;;31.73;48.00;95111.81;5048104;28;20631;-63
2023/06/24 05:26:21;;;;;;;16.42;15.00;;;;;;;31.33;48.82;95116.44;5046738;28;20262;-63
2023/06/24 05:28:48;;;;;;;15.43;14.00;;;;;;;30.99;49.81;95105.50;5047430;28;20239;-63
2023/06/24 05:31:16;;;;;;;16.45;14.95;;;;;;;30.80;50.96;95114.66;5046685;28;20227;-63
2023/06/24 05:33:43;;;;;;;16.42;14.65;;;;;;;30.69;51.37;95121.13;5047690;28;20203;-63
2023/06/24 05:36:09;;;;;;;18.10;16.25;;;;;;;30.34;51.94;95119.81;5046677;28;20226;-63
2023/06/24 05:38:36;;;;;;;17.08;14.98;;;;;;;29.91;53.04;95117.66;5045991;28;20255;-62
2023/06/24 05:41:03;;;;;;;19.27;16.73;;;;;;;30.04;53.09;95128.44;5047047;28;20231;-63
2023/06/24 05:43:29;;;;;;;16.23;14.55;;;;;;;30.37;52.51;95123.91;5047196;28;20296;-63
2023/06/24 05:45:56;;;;;;;18.88;15.48;;;;;;;30.80;51.08;95119.91;5047096;28;20202;-63
2023/06/24 05:48:24;;;;;;;16.25;13.98;;;;;;;31.36;49.40;95115.25;5047230;28;20229;-63
2023/06/24 05:50:51;;;;;;;16.95;15.32;;;;;;;32.32;47.31;95110.03;5046756;28;20222;-63
2023/06/24 05:53:17;;;;;;;15.38;13.88;;;;;;;33.54;44.63;95092.44;5047386;28;20261;-63
2023/06/24 05:55:44;;;;;;;16.73;14.52;;;;;;;34.27;42.25;95092.88;5046956;28;20249;-62
2023/06/24 05:58:11;;;;;;;17.52;14.25;;;;;;;34.35;42.58;95098.03;5046762;28;20740;-63
2023/06/24 06:00:37;;;;;;;16.55;13.57;;;;;;;34.43;41.96;95103.94;5046649;28;20264;-63
2023/06/24 06:03:04;;;;;;;13.98;12.77;;;;;;;34.78;41.80;95109.97;5045619;28;20198;-62
2023/06/24 06:05:32;;;;;;;14.25;12.95;;;;;;;34.98;41.19;95094.16;5046457;28;20754;-63
2023/06/24 06:07:59;;;;;;;20.63;15.77;;;;;;;34.44;42.06;95095.00;5047163;28;20203;-64
2023/06/24 06:10:26;;;;;;;16.40;13.90;;;;;;;33.84;42.67;95093.09;5046530;28;20202;-63
2023/06/24 06:12:52;;;;;;;18.10;16.25;;;;;;;33.42;42.45;95099.22;5046455;28;20250;-62
2023/06/24 06:15:19;;;;;;;15.25;13.90;;;;;;;33.63;42.34;95096.56;5046635;28;20718;-63
2023/06/24 06:17:46;;;;;;;15.32;13.82;;;;;;;35.36;39.72;95099.72;5046185;28;20701;-63
2023/06/24 06:20:13;;;;;;;15.70;13.18;;;;;;;37.87;35.89;95092.50;5047115;28;20245;-62
2023/06/24 06:22:41;;;;;;;14.38;12.75;;;;;;;40.60;31.01;95087.19;5046503;28;20215;-64
2023/06/24 06:25:08;;;;;;;13.80;12.48;;;;;;;43.23;27.55;95089.47;5046464;28;20202;-64
2023/06/24 06:27:35;;;;;;;12.45;11.55;;;;;;;45.66;24.37;95090.56;5046010;28;20262;-63
2023/06/24 06:30:02;;;;;;;13.25;11.85;;;;;;;47.05;22.45;95087.16;5046505;28;20226;-64
2023/06/24 06:32:28;;;;;;;11.90;11.02;;;;;;;47.77;21.66;95090.91;5046101;28;20206;-63
2023/06/24 06:34:55;;;;;;;12.15;11.10;;;;;;;48.78;20.60;95083.56;5046917;28;20230;-64
2023/06/24 06:37:22;;;;;;;12.48;11.45;;;;;;;49.85;19.45;95090.06;5045848;28;20202;-64
2023/06/24 06:39:50;;;;;;;11.15;10.38;;;;;;;50.75;18.74;95091.31;5046268;28;20986;-63
2023/06/24 06:42:17;;;;;;;12.60;11.35;;;;;;;51.23;18.07;95092.38;5046562;28;20286;-65
2023/06/24 06:44:44;;;;;;;14.80;13.50;;;;;;;51.82;17.78;95087.72;5046880;28;20226;-64
2023/06/24 06:47:11;;;;;;;14.13;12.88;;;;;;;52.51;17.06;95092.63;5046431;28;20260;-65
2023/06/24 06:49:38;;;;;;;11.18;10.38;;;;;;;52.22;16.65;95096.66;5046684;28;20314;-63
2023/06/24 06:52:05;;;;;;;10.95;10.23;;;;;;;50.55;17.40;95087.09;5048416;28;20230;-64
2023/06/24 06:54:31;;;;;;;10.35;9.73;;;;;;;49.67;18.04;95100.63;5049191;28;20252;-64
2023/06/24 06:57:03;;;;;;;11.48;10.43;;;;;;;48.71;19.07;95088.56;5049641;28;20693;-63
2023/06/24 06:59:30;;;;;;;11.30;10.55;;;;;;;48.67;19.61;95088.31;5049826;28;20220;-63
2023/06/24 07:01:56;;;;;;;11.43;10.52;;;;;;;49.90;18.56;95090.00;5049709;28;20210;-63
2023/06/24 07:04:23;;;;;;;11.73;10.82;;;;;;;50.32;18.25;95092.44;5050351;28;20260;-64
2023/06/24 07:06:50;;;;;;;10.38;9.85;;;;;;;50.77;17.76;95086.38;5049813;28;20234;-64
2023/06/24 07:09:17;;;;;;;9.95;9.07;;;;;;;51.34;17.39;95093.78;5050410;28;20199;-64
2023/06/24 07:11:44;;;;;;;10.88;10.23;;;;;;;51.85;16.82;95097.94;5049619;28;20195;-64
2023/06/24 07:14:12;;;;;;;12.05;11.10;;;;;;;52.60;16.37;95090.78;5049506;28;20280;-65
2023/06/24 07:16:39;;;;;;;10.65;10.07;;;;;;;53.44;15.99;95103.16;5049385;28;20206;-64
2023/06/24 07:19:05;;;;;;;11.30;10.40;;;;;;;53.09;15.88;95086.06;5049746;28;20230;-65
2023/06/24 07:21:32;;;;;;;9.27;8.60;;;;;;;52.77;15.87;95087.28;5048516;28;20301;-64
2023/06/24 07:23:58;;;;;;;9.52;8.93;;;;;;;53.03;15.29;95084.63;5049249;28;20234;-64
2023/06/24 07:26:28;;;;;;;10.13;9.32;;;;;;;51.00;16.78;95082.63;5049252;28;20269;-64
2023/06/24 07:28:56;;;;;;;9.02;8.50;;;;;;;50.65;17.42;95086.94;5050131;28;20198;-64
2023/06/24 07:31:25;;;;;;;11.95;9.15;;;;;;;51.04;17.45;95080.94;5048856;28;20679;-64
2023/06/24 07:33:51;;;;;;;13.65;9.90;;;;;;;49.96;17.68;95083.41;5049724;28;20340;-64
2023/06/24 07:36:18;;;;;;;13.13;12.15;;;;;;;48.98;18.89;95087.94;5049196;28;20206;-64
2023/06/24 07:38:45;;;;;;;10.23;9.65;;;;;;;49.58;18.47;95094.31;5049555;28;20231;-64
2023/06/24 07:41:12;;;;;;;9.60;8.80;;;;;;;50.56;18.01;95077.88;5048710;28;20647;-64
2023/06/24 07:43:38;;;;;;;9.52;8.85;;;;;;;51.41;17.00;95077.09;5048375;28;20695;-64
2023/06/24 07:46:05;;;;;;;10.48;9.40;;;;;;;51.32;16.93;95078.94;5049231;28;20202;-64
2023/06/24 07:48:33;;;;;;;10.40;9.65;;;;;;;50.60;17.25;95074.31;5049160;28;20242;-63
2023/06/24 07:51:00;;;;;;;10.65;9.88;;;;;;;49.63;18.06;95080.72;5049239;28;20308;-64
2023/06/24 07:53:26;;;;;;;11.43;10.27;;;;;;;48.52;18.65;95085.81;5048203;28;20226;-63
2023/06/24 07:55:53;;;;;;;10.45;9.85;;;;;;;48.28;19.48;95079.63;5049224;28;20232;-64
2023/06/24 07:58:20;;;;;;;10.43;9.73;;;;;;;48.54;19.57;95082.81;5049040;28;20291;-64
2023/06/24 08:00:46;;;;;;;10.23;9.52;;;;;;;49.50;18.50;95094.94;5049011;28;20198;-62
2023/06/24 08:03:14;;;;;;;9.95;9.27;;;;;;;50.04;18.03;95090.81;5047735;28;20218;-64
2023/06/24 08:05:42;;;;;;;10.45;9.65;;;;;;;50.58;17.43;95100.81;5048835;28;20209;-63
2023/06/24 08:08:09;;;;;;;9.38;8.85;;;;;;;50.92;17.50;95089.56;5048747;28;20669;-64
2023/06/24 08:10:36;;;;;;;10.43;9.93;;;;;;;51.49;17.06;95087.16;5048131;28;20256;-64
2023/06/24 08:13:02;;;;;;;11.35;10.50;;;;;;;50.61;17.77;95088.63;5048302;28;20198;-64
2023/06/24 08:15:29;;;;;;;10.63;9.95;;;;;;;50.29;17.73;95079.53;5049066;28;20233;-63
2023/06/24 08:17:56;;;;;;;12.45;11.10;;;;;;;51.01;17.52;95090.47;5048119;28;20207;-64
2023/06/24 08:20:24;;;;;;;11.13;10.27;;;;;;;51.05;17.20;95085.22;5048437;28;20241;-65
2023/06/24 08:22:52;;;;;;;10.52;9.95;;;;;;;50.85;17.38;95081.06;5047103;28;20755;-64
2023/06/24 08:25:18;;;;;;;10.45;9.68;;;;;;;50.55;17.75;95079.00;5048717;28;20260;-64
2023/06/24 08:27:46;;;;;;;11.05;9.80;;;;;;;51.93;16.65;95074.69;5048181;28;20296;-64
2023/06/24 08:30:14;;;;;;;10.18;9.23;;;;;;;52.80;16.09;95073.88;5046222;28;20676;-65
2023/06/24 08:32:41;;;;;;;22.98;21.05;;;;;;;52.48;16.19;95077.78;5047759;28;20211;-64
2023/06/24 08:35:08;;;;;;;23.75;21.60;;;;;;;52.18;16.52;95075.94;5047327;28;20692;-65
2023/06/24 08:37:35;;;;;;;10.82;9.77;;;;;;;50.42;17.34;95071.72;5045957;28;20207;-64
2023/06/24 08:40:05;;;;;;;11.20;10.00;;;;;;;48.53;18.76;95071.25;5047909;28;20245;-63
2023/06/24 08:42:32;;;;;;;17.45;15.85;;;;;;;48.50;19.32;95066.44;5047014;28;20194;-64
2023/06/24 08:44:59;;;;;;;10.40;9.65;;;;;;;49.09;18.81;95058.88;5046598;28;20203;-64
2023/06/24 08:47:26;;;;;;;11.82;10.80;;;;;;;48.97;18.54;95054.75;5047661;28;20643;-65
2023/06/24 08:49:57;;;;;;;12.25;11.48;;;;;;;48.82;19.31;95052.22;5046537;28;20233;-64
2023/06/24 08:52:30;;;;;;;14.88;13.75;;;;;;;49.92;18.58;95044.56;5048330;28;20312;-64
2023/06/24 08:55:00;;;;;;;15.70;14.27;;;;;;;49.98;18.16;95046.06;5046597;28;20636;-64
2023/06/24 08:57:28;;;;;;;14.00;11.98;;;;;;;49.44;18.43;95052.94;5048068;28;20210;-65
2023/06/24 08:59:54;;;;;;;11.70;11.00;;;;;;;49.58;18.11;95056.50;5046757;28;20323;-64
2023/06/24 09:02:21;;;;;;;15.25;14.05;;;;;;;49.03;19.09;95050.06;5047747;28;20203;-64
2023/06/24 09:04:48;;;;;;;10.90;10.20;;;;;;;49.80;18.41;95049.63;5046281;28;20206;-64
2023/06/24 09:07:24;;;;;;;18.92;17.38;;;;;;;49.31;18.71;95054.47;5048002;28;20198;-64
2023/06/24 09:09:50;;;;;;;12.70;11.65;;;;;;;49.40;18.83;95049.22;5046761;28;20659;-63
2023/06/24 09:12:17;;;;;;;10.90;9.75;;;;;;;48.91;18.41;95045.13;5045781;28;20226;-64
2023/06/24 09:14:49;;;;;;;10.18;9.50;;;;;;;47.30;20.11;95049.28;5046064;28;20234;-64
2023/06/24 09:17:16;;;;;;;10.13;9.50;;;;;;;45.89;21.21;95045.41;5047748;28;20233;-63
2023/06/24 09:19:42;;;;;;;11.40;10.60;;;;;;;45.04;22.65;95045.94;5046797;28;20227;-62
2023/06/24 09:22:16;;;;;;;12.02;10.32;;;;;;;43.98;23.41;95048.25;5046211;28;20207;-63
2023/06/24 09:24:44;;;;;;;11.27;10.57;;;;;;;43.22;24.84;95045.06;5046253;28;20211;-63
2023/06/24 09:27:13;;;;;;;13.18;10.65;;;;;;;43.16;24.86;95054.06;5046853;28;20238;-63
2023/06/24 09:29:41;;;;;;;11.80;10.68;;;;;;;43.25;24.67;95052.56;5046226;28;20276;-62
2023/06/24 09:32:10;;;;;;;10.88;10.18;;;;;;;43.35;23.80;95045.41;5046122;28;20235;-62
2023/06/24 09:34:37;;;;;;;12.98;12.05;;;;;;;43.05;25.10;95040.63;5047202;28;20226;-64
2023/06/24 09:37:04;;;;;;;14.68;13.48;;;;;;;42.84;25.31;95044.16;5047499;28;20238;-63
2023/06/24 09:39:37;;;;;;;13.20;12.05;;;;;;;42.70;26.00;95040.25;5047381;28;20223;-64
2023/06/24 09:42:06;;;;;;;12.70;11.68;;;;;;;42.35;26.35;95044.13;5044208;28;20707;-64
2023/06/24 09:44:32;;;;;;;12.68;11.20;;;;;;;41.19;27.58;95050.44;5046438;28;20317;-63
2023/06/24 09:46:59;;;;;;;12.00;11.13;;;;;;;38.87;29.77;95051.28;5046264;28;20663;-63
2023/06/24 09:49:27;;;;;;;11.70;10.85;;;;;;;36.75;33.50;95055.22;5046854;28;20203;-62
2023/06/24 09:51:56;;;;;;;12.77;11.57;;;;;;;35.45;36.24;95044.81;5045165;28;20234;-63
2023/06/24 09:54:25;;;;;;;13.15;11.93;;;;;;;35.16;37.85;95056.59;5046781;28;20700;-63
2023/06/24 09:56:54;;;;;;;13.90;12.73;;;;;;;35.09;38.01;95051.31;5044950;28;20280;-63
2023/06/24 09:59:22;;;;;;;11.75;10.57;;;;;;;35.24;38.96;95048.47;5044168;28;20250;-64
2023/06/24 10:01:52;;;;;;;61.38;49.97;;;;;;;34.68;38.60;95038.22;5044348;28;20225;-64
2023/06/24 10:04:21;;;;;;;10.70;9.90;;;;;;;33.89;38.54;95037.13;5043271;28;20257;-64
2023/06/24 10:06:50;;;;;;;11.60;10.60;;;;;;;;;;5043525;28;20206;-62
2023/06/24 10:09:17;;;;;;;13.25;11.05;;;;;;;;;;5045434;28;20199;-62
2023/06/24 10:11:45;;;;;;;14.18;12.68;;;;;;;;;;5042458;28;20211;-62
2023/06/24 10:14:11;;;;;;;13.52;12.25;;;;;;;;;;5043490;28;20207;-62
2023/06/24 10:16:38;;;;;;;13.10;11.88;;;;;;;;;;5045203;28;20203;-62
2023/06/24 10:19:05;;;;;;;43.15;20.80;;;;;;;;;;5044570;28;20675;-63
2023/06/24 10:21:48;;;;;;;49.92;20.98;;;;;;;;;;5044666;28;20620;-63
2023/06/24 10:24:28;;;;;;;150.93;44.70;;;;;;;;;;5046350;28;21504;-63
2023/06/24 10:26:55;;;;;;;15.90;12.48;;;;;;;;;;5047127;28;20262;-62
2023/06/24 10:29:31;;;;;;;15.35;12.27;;;;;;;;;;5050548;28;20278;-64
2023/06/24 10:32:01;;;;;;;90.72;41.67;;;;;;;;;;5048420;28;20206;-62
2023/06/24 10:34:42;;;;;;;12.32;10.45;;;;;;;;;;5048124;28;20213;-62
2023/06/24 10:37:09;;;;;;;11.48;10.48;;;;;;;;;;5046849;28;20206;-62
2023/06/24 10:39:38;;;;;;;54.08;35.58;;;;;;;;;;5046511;28;20285;-62
2023/06/24 10:42:35;;;;;;;44.17;23.08;;;;;;;;;;5048440;28;20206;-63
2023/06/24 10:45:02;;;;;;;12.50;11.45;;;;;;;;;;4985636;28;20204;-63
2023/06/24 10:47:29;;;;;;;10.60;9.70;;;;;;;;;;5032907;28;20246;-63
2023/06/24 10:49:55;;;;;;;12.18;10.27;;;;;;;;;;5047009;28;20283;-62
2023/06/24 10:52:22;;;;;;;10.88;9.93;;;;;;;;;;5047902;28;20222;-64
2023/06/24 10:54:51;;;;;;;12.82;11.73;;;;;;;;;;5050408;28;20211;-63
2023/06/24 10:57:21;;;;;;;16.10;14.35;;;;;;;;;;5044433;28;20203;-63
2023/06/24 10:59:48;;;;;;;11.82;10.60;;;;;;;;;;5045823;28;20254;-63
2023/06/24 11:02:15;;;;;;;17.92;16.05;;;;;;;;;;5048482;28;20604;-61
2023/06/24 11:04:45;;;;;;;12.02;11.13;;;;;;;;;;5049728;28;20199;-63
2023/06/24 11:07:12;;;;;;;11.23;10.43;;;;;;;;;;5047474;28;20199;-64
2023/06/24 11:09:38;;;;;;;15.75;13.25;;;;;;;;;;5046587;28;20203;-63
2023/06/24 11:12:09;;;;;;;13.40;11.95;;;;;;;;;;5049401;28;20623;-63
2023/06/24 11:14:35;;;;;;;10.32;9.43;;;;;;;;;;5046188;28;20211;-63
2023/06/24 11:17:02;;;;;;;19.33;14.48;;;;;;;;;;5047826;28;20217;-64
2023/06/24 11:19:29;;;;;;;9.57;8.75;;;;;;;;;;5047420;28;20233;-64
2023/06/24 11:21:57;;;;;;;8.45;7.85;;;;;;;;;;5049250;28;20218;-62
2023/06/24 11:24:24;;;;;;;10.00;9.05;;;;;;;;;;5048032;28;20306;-63
2023/06/24 11:26:51;;;;;;;12.02;10.88;;;;;;;;;;5047021;28;20235;-64
2023/06/24 11:29:19;;;;;;;13.13;12.13;;;;;;;;;;5046771;28;20695;-63
2023/06/24 11:31:46;;;;;;;10.60;9.77;;;;;;;;;;5047029;28;20290;-64
2023/06/24 11:34:13;;;;;;;9.88;8.88;;;;;;;;;;5046744;28;20596;-63
2023/06/24 11:36:39;;;;;;;9.60;8.70;;;;;;;;;;5048446;28;20230;-65
2023/06/24 11:39:05;;;;;;;12.32;11.20;;;;;;;;;;5044800;28;20203;-63
2023/06/24 11:41:32;;;;;;;9.07;8.40;;;;;;;;;;5047254;28;20242;-63
2023/06/24 11:43:59;;;;;;;9.10;8.32;;;;;;;;;;5045365;28;20195;-64